createdAt,value
2023-05-14T00:00:10.033Z,30.27
2023-05-14T00:02:37.642Z,33.13
2023-05-14T00:05:05.755Z,33.08
2023-05-14T00:07:36.203Z,32.72
2023-05-14T00:10:05.263Z,29.73
2023-05-14T00:12:33.350Z,30.00
2023-05-14T00:15:01.129Z,30.58
2023-05-14T00:17:28.685Z,45.38
2023-05-14T00:19:56.547Z,38.45
2023-05-14T00:22:24.215Z,36.03
2023-05-14T00:24:51.822Z,29.03
2023-05-14T00:27:20.884Z,31.58
2023-05-14T00:29:48.424Z,31.17
2023-05-14T00:32:16.052Z,30.33
2023-05-14T00:34:43.814Z,25.52
2023-05-14T00:37:11.329Z,29.03
2023-05-14T00:39:38.895Z,30.33
2023-05-14T00:42:06.933Z,26.60
2023-05-14T00:44:36.443Z,25.63
2023-05-14T00:47:07.493Z,26.17
2023-05-14T00:49:35.287Z,24.43
2023-05-14T00:52:03.591Z,24.08
2023-05-14T00:54:31.449Z,22.90
2023-05-14T00:56:59.374Z,25.05
2023-05-14T00:59:26.931Z,25.38
2023-05-14T01:01:56.115Z,25.03
2023-05-14T01:04:23.794Z,22.85
2023-05-14T01:06:55.800Z,26.05
2023-05-14T01:09:26.270Z,25.08
2023-05-14T01:11:56.546Z,26.33
2023-05-14T01:14:29.301Z,21.87
2023-05-14T01:16:59.732Z,26.10
2023-05-14T01:19:31.051Z,28.00
2023-05-14T01:22:00.270Z,26.02
2023-05-14T01:24:27.777Z,22.38
2023-05-14T01:26:59.267Z,24.07
2023-05-14T01:29:27.926Z,23.63
2023-05-14T01:31:56.562Z,22.08
2023-05-14T01:34:25.206Z,23.88
2023-05-14T01:36:53.430Z,22.83
2023-05-14T01:39:22.796Z,23.23
2023-05-14T01:41:50.668Z,24.65
2023-05-14T01:44:18.586Z,24.92
2023-05-14T01:46:46.138Z,23.48
2023-05-14T01:49:13.738Z,22.27
2023-05-14T01:51:41.375Z,20.67
2023-05-14T01:54:08.934Z,22.48
2023-05-14T01:56:38.078Z,21.33
2023-05-14T01:59:05.985Z,21.60
2023-05-14T02:01:34.017Z,23.75
2023-05-14T02:04:02.133Z,21.40
2023-05-14T02:06:29.772Z,22.45
2023-05-14T02:08:57.323Z,20.73
2023-05-14T02:11:24.903Z,23.48
2023-05-14T02:13:53.832Z,27.27
2023-05-14T02:16:21.361Z,21.17
2023-05-14T02:18:48.947Z,24.98
2023-05-14T02:21:16.586Z,22.55
2023-05-14T02:23:44.631Z,26.25
2023-05-14T02:26:12.502Z,24.23
2023-05-14T02:28:40.178Z,24.23
2023-05-14T02:31:09.044Z,27.52
2023-05-14T02:33:36.615Z,20.45
2023-05-14T02:36:04.510Z,23.55
2023-05-14T02:38:32.052Z,22.27
2023-05-14T02:40:59.525Z,23.70
2023-05-14T02:43:29.000Z,25.83
2023-05-14T02:45:56.588Z,23.17
2023-05-14T02:48:26.111Z,26.02
2023-05-14T02:50:53.730Z,25.45
2023-05-14T02:53:21.327Z,27.67
2023-05-14T02:55:48.866Z,24.98
2023-05-14T02:58:16.424Z,22.35
2023-05-14T03:00:44.045Z,25.05
2023-05-14T03:03:12.099Z,25.38
2023-05-14T03:05:41.580Z,21.67
2023-05-14T03:08:09.193Z,27.00
2023-05-14T03:10:37.063Z,27.17
2023-05-14T03:13:04.731Z,23.23
2023-05-14T03:15:32.238Z,24.33
2023-05-14T03:17:59.885Z,29.57
2023-05-14T03:20:27.714Z,25.67
2023-05-14T03:22:56.744Z,23.85
2023-05-14T03:25:24.235Z,23.52
2023-05-14T03:27:51.846Z,24.45
2023-05-14T03:30:19.442Z,24.20
2023-05-14T03:32:47.033Z,23.92
2023-05-14T03:35:14.598Z,23.13
2023-05-14T03:37:42.126Z,26.85
2023-05-14T03:40:11.558Z,25.77
2023-05-14T03:42:39.644Z,23.37
2023-05-14T03:45:07.968Z,27.05
2023-05-14T03:47:35.534Z,24.00
2023-05-14T03:50:03.105Z,25.90
2023-05-14T03:52:30.673Z,23.27
2023-05-14T03:54:58.197Z,30.27
2023-05-14T03:57:27.370Z,26.42
2023-05-14T03:59:54.870Z,28.42
2023-05-14T04:02:22.502Z,22.67
2023-05-14T04:04:50.203Z,26.83
2023-05-14T04:07:18.496Z,31.47
2023-05-14T04:09:46.147Z,26.27
2023-05-14T04:12:13.761Z,26.13
2023-05-14T04:14:42.675Z,23.73
2023-05-14T04:17:10.177Z,26.52
2023-05-14T04:19:37.993Z,27.77
2023-05-14T04:22:05.706Z,31.98
2023-05-14T04:24:33.532Z,25.17
2023-05-14T04:27:01.287Z,25.88
2023-05-14T04:29:28.869Z,25.83
2023-05-14T04:31:57.815Z,25.83
2023-05-14T04:34:26.351Z,26.75
2023-05-14T04:36:53.951Z,27.98
2023-05-14T04:39:21.466Z,28.35
2023-05-14T04:41:54.161Z,26.65
2023-05-14T04:44:21.717Z,26.77
2023-05-14T04:46:49.260Z,29.17
2023-05-14T04:49:18.335Z,27.20
2023-05-14T04:51:45.912Z,29.55
2023-05-14T04:54:15.974Z,30.27
2023-05-14T04:56:44.483Z,34.33
2023-05-14T04:59:12.186Z,33.78
2023-05-14T05:01:39.755Z,30.40
2023-05-14T05:04:07.727Z,29.75
2023-05-14T05:06:36.683Z,28.13
2023-05-14T05:09:04.525Z,27.47
2023-05-14T05:11:32.190Z,30.15
2023-05-14T05:13:59.727Z,28.60
2023-05-14T05:16:27.433Z,27.85
2023-05-14T05:18:55.238Z,28.58
2023-05-14T05:21:22.776Z,26.20
2023-05-14T05:23:51.673Z,26.05
2023-05-14T05:26:22.899Z,26.98
2023-05-14T05:28:50.529Z,28.77
2023-05-14T05:31:19.822Z,31.45
2023-05-14T05:33:48.863Z,28.13
2023-05-14T05:36:16.605Z,28.77
2023-05-14T05:38:44.366Z,28.15
2023-05-14T05:41:13.634Z,24.67
2023-05-14T05:43:41.217Z,27.23
2023-05-14T05:46:09.586Z,28.37
2023-05-14T05:48:37.238Z,27.38
2023-05-14T05:51:04.988Z,27.40
2023-05-14T05:53:32.518Z,31.23
2023-05-14T05:56:00.191Z,27.17
2023-05-14T05:58:29.069Z,28.30
2023-05-14T06:00:57.708Z,29.23
2023-05-14T06:03:26.110Z,29.02
2023-05-14T06:05:54.412Z,25.05
2023-05-14T06:08:21.924Z,32.33
2023-05-14T06:10:49.595Z,27.53
2023-05-14T06:13:17.115Z,24.77
2023-05-14T06:15:46.094Z,24.10
2023-05-14T06:18:13.751Z,27.48
2023-05-14T06:20:41.723Z,26.33
2023-05-14T06:23:11.191Z,28.90
2023-05-14T06:25:38.931Z,31.13
2023-05-14T06:28:06.479Z,29.45
2023-05-14T06:30:34.063Z,30.02
2023-05-14T06:33:04.017Z,30.02
2023-05-14T06:35:32.911Z,27.97
2023-05-14T06:38:00.450Z,27.63
2023-05-14T06:40:28.192Z,29.70
2023-05-14T06:42:55.695Z,30.45
2023-05-14T06:45:23.285Z,28.80
2023-05-14T06:47:50.961Z,31.13
2023-05-14T06:50:20.026Z,26.15
2023-05-14T06:52:48.191Z,32.22
2023-05-14T06:55:15.819Z,26.25
2023-05-14T06:57:44.065Z,24.70
2023-05-14T07:00:12.085Z,28.00
2023-05-14T07:02:39.694Z,26.33
2023-05-14T07:05:08.499Z,24.35
2023-05-14T07:07:37.561Z,27.48
2023-05-14T07:10:05.753Z,25.00
2023-05-14T07:12:33.331Z,25.83
2023-05-14T07:15:04.046Z,27.25
2023-05-14T07:17:31.605Z,29.88
2023-05-14T07:19:59.137Z,23.52
2023-05-14T07:22:26.742Z,27.23
2023-05-14T07:24:55.772Z,28.23
2023-05-14T07:27:23.402Z,24.40
2023-05-14T07:29:50.879Z,23.73
2023-05-14T07:35:04.909Z,26.77
2023-05-14T07:37:32.853Z,25.93
2023-05-14T07:40:01.724Z,28.15
2023-05-14T07:42:36.783Z,29.00
2023-05-14T07:45:05.228Z,26.17
2023-05-14T07:47:33.081Z,25.88
2023-05-14T07:50:00.892Z,28.17
2023-05-14T07:52:28.744Z,28.63
2023-05-14T07:54:56.291Z,26.17
2023-05-14T07:57:26.314Z,27.35
2023-05-14T07:59:54.023Z,27.02
2023-05-14T08:02:21.802Z,27.27
2023-05-14T08:04:49.429Z,26.25
2023-05-14T08:07:17.280Z,25.58
2023-05-14T08:09:45.978Z,25.95
2023-05-14T08:12:13.685Z,25.88
2023-05-14T08:14:42.829Z,25.00
2023-05-14T08:17:10.685Z,26.48
2023-05-14T08:19:38.245Z,23.90
2023-05-14T08:22:05.948Z,24.75
2023-05-14T08:24:33.514Z,27.38
2023-05-14T08:27:02.368Z,26.40
2023-05-14T08:29:30.180Z,28.73
2023-05-14T08:32:00.339Z,28.13
2023-05-14T08:34:31.402Z,26.05
2023-05-14T08:36:59.556Z,25.52
2023-05-14T08:39:27.079Z,24.07
2023-05-14T08:41:59.155Z,24.10
2023-05-14T08:44:32.856Z,29.38
2023-05-14T08:47:01.948Z,26.40
2023-05-14T08:49:33.519Z,27.42
2023-05-14T08:52:01.303Z,29.07
2023-05-14T08:54:29.980Z,23.92
2023-05-14T08:56:57.685Z,24.55
2023-05-14T08:59:25.300Z,29.10
2023-05-14T09:01:54.189Z,27.85
2023-05-14T09:04:23.629Z,27.03
2023-05-14T09:06:52.177Z,26.73
2023-05-14T09:09:22.397Z,31.40
2023-05-14T09:11:52.242Z,25.88
2023-05-14T09:14:20.326Z,31.40
2023-05-14T09:16:49.609Z,28.57
2023-05-14T09:19:19.096Z,32.83
2023-05-14T09:21:48.983Z,34.42
2023-05-14T09:24:20.927Z,31.90
2023-05-14T09:26:51.180Z,34.35
2023-05-14T09:29:18.880Z,28.67
2023-05-14T09:31:47.028Z,36.53
2023-05-14T09:34:24.459Z,31.13
2023-05-14T09:36:55.748Z,34.55
2023-05-14T09:39:24.432Z,39.58
2023-05-14T09:41:52.786Z,35.70
2023-05-14T09:44:20.659Z,36.47
2023-05-14T09:46:48.769Z,37.83
2023-05-14T09:49:16.342Z,34.30
2023-05-14T09:51:44.597Z,36.30
2023-05-14T09:54:13.715Z,33.60
2023-05-14T09:56:42.902Z,33.20
2023-05-14T09:59:10.855Z,31.23
2023-05-14T10:01:39.285Z,33.58
2023-05-14T10:04:07.905Z,33.13
2023-05-14T10:06:37.812Z,35.53
2023-05-14T10:09:09.798Z,32.80
2023-05-14T10:11:39.650Z,31.98
2023-05-14T10:14:08.880Z,31.90
2023-05-14T10:16:39.086Z,30.30
2023-05-14T10:19:07.570Z,30.00
2023-05-14T10:21:36.014Z,32.33
2023-05-14T10:24:04.196Z,24.55
2023-05-14T10:26:31.973Z,34.45
2023-05-14T10:29:01.050Z,26.95
2023-05-14T10:31:43.551Z,26.83
2023-05-14T10:34:32.269Z,24.52
2023-05-14T10:37:00.729Z,22.48
2023-05-14T10:39:41.129Z,22.83
2023-05-14T10:42:09.808Z,28.13
2023-05-14T10:44:42.064Z,23.13
2023-05-14T10:47:09.655Z,29.40
2023-05-14T10:49:43.344Z,25.98
2023-05-14T10:52:12.821Z,27.83
2023-05-14T10:54:40.309Z,25.70
2023-05-14T10:57:14.576Z,26.43
2023-05-14T10:59:44.389Z,25.13
2023-05-14T11:02:25.180Z,24.52
2023-05-14T11:05:00.344Z,27.08
2023-05-14T11:07:32.312Z,20.38
2023-05-14T11:10:04.452Z,26.53
2023-05-14T11:12:32.624Z,28.35
2023-05-14T11:15:04.089Z,27.02
2023-05-14T11:17:33.022Z,28.80
2023-05-14T11:20:01.232Z,28.30
2023-05-14T11:22:28.984Z,28.37
2023-05-14T11:24:56.689Z,24.45
2023-05-14T11:27:24.396Z,27.40
2023-05-14T11:29:52.060Z,22.15
2023-05-14T11:32:21.236Z,24.10
2023-05-14T11:34:53.150Z,24.27
2023-05-14T11:37:21.751Z,24.48
2023-05-14T11:39:50.058Z,24.42
2023-05-14T11:42:19.523Z,20.50
2023-05-14T11:44:49.153Z,21.75
2023-05-14T11:47:17.096Z,21.27
2023-05-14T11:49:46.613Z,22.85
2023-05-14T11:52:15.228Z,24.33
2023-05-14T11:54:43.471Z,19.88
2023-05-14T11:57:12.242Z,21.27
2023-05-14T11:59:40.671Z,23.90
2023-05-14T12:02:11.376Z,25.00
2023-05-14T12:04:38.931Z,21.30
2023-05-14T12:07:10.419Z,24.35
2023-05-14T12:09:38.874Z,20.83
2023-05-14T12:12:09.873Z,18.17
2023-05-14T12:14:41.654Z,22.90
2023-05-14T12:17:19.490Z,19.50
2023-05-14T12:19:48.567Z,19.48
2023-05-14T12:22:18.939Z,21.42
2023-05-14T12:24:54.214Z,18.37
2023-05-14T12:27:23.237Z,19.17
2023-05-14T12:29:53.315Z,20.98
2023-05-14T12:32:21.011Z,19.75
2023-05-14T12:34:48.804Z,20.83
2023-05-14T12:37:19.259Z,20.83
2023-05-14T12:39:47.088Z,17.27
2023-05-14T12:42:19.970Z,16.00
2023-05-14T12:44:48.385Z,15.95
2023-05-14T12:47:17.197Z,14.73
2023-05-14T12:49:44.834Z,14.80
2023-05-14T12:54:44.401Z,13.13
2023-05-14T12:57:12.051Z,13.27
2023-05-14T12:59:39.636Z,15.60
2023-05-14T13:02:07.931Z,16.07
2023-05-14T13:04:35.786Z,13.75
2023-05-14T13:07:03.465Z,17.20
2023-05-14T13:09:31.535Z,15.88
2023-05-14T13:12:00.848Z,14.70
2023-05-14T13:14:28.352Z,12.53
2023-05-14T13:16:55.927Z,7.97
2023-05-14T13:19:23.846Z,10.00
2023-05-14T13:21:51.362Z,8.93
2023-05-14T13:24:18.958Z,8.20
2023-05-14T13:26:47.215Z,8.17
2023-05-14T13:29:16.084Z,6.30
2023-05-14T13:31:43.650Z,5.90
2023-05-14T13:34:11.307Z,7.43
2023-05-14T13:36:39.820Z,6.97
2023-05-14T13:39:07.553Z,9.20
2023-05-14T13:41:39.303Z,6.47
2023-05-14T13:44:07.501Z,8.98
2023-05-14T13:46:36.516Z,7.88
2023-05-14T13:49:04.205Z,7.40
2023-05-14T13:51:31.764Z,6.87
2023-05-14T13:53:59.295Z,8.40
2023-05-14T13:56:27.091Z,7.55
2023-05-14T13:58:54.629Z,5.80
2023-05-14T14:01:23.308Z,6.03
2023-05-14T14:03:52.567Z,5.43
2023-05-14T14:06:20.202Z,6.68
2023-05-14T14:08:48.395Z,7.85
2023-05-14T14:11:17.012Z,8.40
2023-05-14T14:13:46.445Z,6.00
2023-05-14T14:16:14.395Z,6.70
2023-05-14T14:18:43.372Z,7.90
2023-05-14T14:21:12.705Z,4.88
2023-05-14T14:23:40.452Z,8.35
2023-05-14T14:26:08.321Z,6.70
2023-05-14T14:28:35.834Z,7.33
2023-05-14T14:31:03.641Z,7.65
2023-05-14T14:33:31.954Z,5.38
2023-05-14T14:35:59.449Z,5.00
2023-05-14T14:38:28.511Z,4.72
2023-05-14T14:40:56.218Z,5.13
2023-05-14T14:43:23.962Z,4.70
2023-05-14T14:45:51.640Z,5.47
2023-05-14T14:48:26.711Z,4.25
2023-05-14T14:50:54.437Z,5.07
2023-05-14T14:53:22.135Z,4.43
2023-05-14T14:55:51.814Z,4.88
2023-05-14T14:58:19.858Z,4.53
2023-05-14T15:00:48.277Z,3.72
2023-05-14T15:03:16.080Z,4.85
2023-05-14T15:05:43.862Z,4.47
2023-05-14T15:08:11.566Z,4.68
2023-05-14T15:10:39.275Z,4.80
2023-05-14T15:13:08.432Z,4.88
2023-05-14T15:15:37.485Z,5.18
2023-05-14T15:18:05.430Z,4.20
2023-05-14T15:20:35.967Z,3.90
2023-05-14T15:23:07.091Z,4.68
2023-05-14T15:25:36.199Z,4.63
2023-05-14T15:28:03.812Z,4.80
2023-05-14T15:30:32.919Z,4.47
2023-05-14T15:33:00.620Z,4.90
2023-05-14T15:35:28.308Z,4.45
2023-05-14T15:37:57.226Z,4.53
2023-05-14T15:40:24.959Z,5.50
2023-05-14T15:42:52.705Z,7.63
2023-05-14T15:45:20.393Z,4.82
2023-05-14T15:47:50.049Z,6.25
2023-05-14T15:50:17.704Z,4.45
2023-05-14T15:52:45.995Z,5.22
2023-05-14T15:55:13.615Z,4.03
2023-05-14T15:57:41.105Z,4.90
2023-05-14T16:00:11.157Z,4.13
2023-05-14T16:02:39.067Z,3.60
2023-05-14T16:05:08.773Z,7.82
2023-05-14T16:07:36.725Z,4.20
2023-05-14T16:10:04.823Z,5.32
2023-05-14T16:12:32.611Z,3.50
2023-05-14T16:15:00.279Z,4.10
2023-05-14T16:17:27.903Z,3.83
2023-05-14T16:19:56.528Z,3.70
2023-05-14T16:22:26.282Z,3.10
2023-05-14T16:24:54.267Z,3.30
2023-05-14T16:27:22.035Z,3.20
2023-05-14T16:29:51.017Z,3.33
2023-05-14T16:32:18.779Z,3.63
2023-05-14T16:34:49.898Z,2.97
2023-05-14T16:37:17.736Z,3.13
2023-05-14T16:39:47.313Z,3.15
2023-05-14T16:42:15.311Z,4.35
2023-05-14T16:44:42.955Z,4.03
2023-05-14T16:47:10.601Z,3.92
2023-05-14T16:49:38.092Z,3.00
2023-05-14T16:52:06.045Z,3.53
2023-05-14T16:54:36.619Z,4.70
2023-05-14T16:57:10.752Z,3.07
2023-05-14T16:59:38.727Z,5.30
2023-05-14T17:02:06.641Z,7.35
2023-05-14T17:04:38.753Z,4.22
2023-05-14T17:07:06.733Z,5.78
2023-05-14T17:09:34.307Z,4.20
2023-05-14T17:12:02.081Z,4.53
2023-05-14T17:14:31.566Z,4.10
2023-05-14T17:16:59.139Z,3.58
2023-05-14T17:19:26.816Z,4.38
2023-05-14T17:21:54.436Z,3.67
2023-05-14T17:24:24.544Z,3.80
2023-05-14T17:26:52.160Z,3.10
2023-05-14T17:29:19.795Z,3.30
2023-05-14T17:31:49.226Z,7.35
2023-05-14T17:34:17.698Z,3.00
2023-05-14T17:36:46.200Z,3.30
2023-05-14T17:39:13.798Z,4.22
2023-05-14T17:41:42.087Z,3.60
2023-05-14T17:44:12.904Z,3.13
2023-05-14T17:46:41.576Z,2.88
2023-05-14T17:49:11.814Z,3.50
2023-05-14T17:51:40.023Z,4.22
2023-05-14T17:54:07.557Z,3.75
2023-05-14T17:56:35.216Z,5.25
2023-05-14T17:59:04.984Z,4.05
2023-05-14T18:01:32.581Z,4.00
2023-05-14T18:04:00.223Z,3.90
2023-05-14T18:06:29.471Z,4.07
2023-05-14T18:08:56.999Z,3.47
2023-05-14T18:11:24.733Z,3.55
2023-05-14T18:13:52.536Z,3.07
2023-05-14T18:16:20.270Z,3.45
2023-05-14T18:18:48.328Z,3.42
2023-05-14T18:21:16.006Z,4.30
2023-05-14T18:23:44.930Z,4.25
2023-05-14T18:26:12.516Z,4.77
2023-05-14T18:28:40.577Z,3.92
2023-05-14T18:31:08.436Z,4.57
2023-05-14T18:33:35.997Z,3.13
2023-05-14T18:36:04.049Z,4.28
2023-05-14T18:38:31.570Z,4.43
2023-05-14T18:41:00.598Z,3.10
2023-05-14T18:43:28.496Z,3.83
2023-05-14T18:45:56.093Z,4.57
2023-05-14T18:48:24.075Z,4.45
2023-05-14T18:50:51.889Z,3.30
2023-05-14T18:53:19.431Z,3.97
2023-05-14T18:55:47.277Z,3.65
2023-05-14T18:58:17.959Z,3.78
2023-05-14T19:00:46.367Z,4.22
2023-05-14T19:03:15.956Z,4.67
2023-05-14T19:05:43.593Z,5.38
2023-05-14T19:08:11.734Z,4.22
2023-05-14T19:10:39.480Z,4.22
2023-05-14T19:13:07.068Z,4.45
2023-05-14T19:15:36.212Z,4.37
2023-05-14T19:18:03.979Z,4.88
2023-05-14T19:20:31.582Z,4.10
2023-05-14T19:22:59.192Z,4.75
2023-05-14T19:25:27.833Z,5.65
2023-05-14T19:27:55.923Z,3.90
2023-05-14T19:30:24.022Z,5.32
2023-05-14T19:32:55.395Z,3.78
2023-05-14T19:35:23.164Z,3.58
2023-05-14T19:37:51.047Z,3.80
2023-05-14T19:40:18.696Z,4.67
2023-05-14T19:42:47.089Z,4.57
2023-05-14T19:45:14.748Z,7.63
2023-05-14T19:47:43.889Z,6.55
2023-05-14T19:50:13.444Z,6.78
2023-05-14T19:52:41.010Z,6.47
2023-05-14T19:55:08.969Z,5.90
2023-05-14T19:57:38.465Z,6.00
2023-05-14T20:00:08.977Z,5.85
2023-05-14T20:02:36.786Z,10.18
2023-05-14T20:05:06.681Z,7.10
2023-05-14T20:07:35.766Z,6.13
2023-05-14T20:10:03.442Z,7.93
2023-05-14T20:12:31.271Z,7.25
2023-05-14T20:15:02.072Z,5.80
2023-05-14T20:17:30.439Z,6.60
2023-05-14T20:19:58.124Z,6.13
2023-05-14T20:22:26.032Z,6.40
2023-05-14T20:24:55.622Z,5.65
2023-05-14T20:27:23.113Z,8.77
2023-05-14T20:29:51.460Z,6.50
2023-05-14T20:32:26.258Z,7.32
2023-05-14T20:34:53.841Z,7.63
2023-05-14T20:37:21.552Z,7.15
2023-05-14T20:39:52.287Z,7.80
2023-05-14T20:42:21.590Z,7.73
2023-05-14T20:44:49.744Z,7.07
2023-05-14T20:47:20.383Z,9.48
2023-05-14T20:49:48.649Z,8.75
2023-05-14T20:52:16.386Z,8.45
2023-05-14T20:54:44.392Z,10.03
2023-05-14T20:57:16.232Z,10.57
2023-05-14T20:59:45.836Z,10.00
2023-05-14T21:02:13.448Z,10.38
2023-05-14T21:04:41.315Z,10.18
2023-05-14T21:07:09.468Z,9.77
2023-05-14T21:09:37.161Z,11.70
2023-05-14T21:12:05.577Z,11.45
2023-05-14T21:14:33.420Z,16.50
2023-05-14T21:17:02.294Z,9.05
2023-05-14T21:19:29.839Z,11.33
2023-05-14T21:21:57.493Z,10.45
2023-05-14T21:24:25.095Z,8.77
2023-05-14T21:26:53.670Z,10.43
2023-05-14T21:29:23.026Z,12.43
2023-05-14T21:31:50.621Z,10.70
2023-05-14T21:34:19.799Z,11.32
2023-05-14T21:36:48.412Z,10.80
2023-05-14T21:39:15.968Z,11.18
2023-05-14T21:41:43.601Z,11.25
2023-05-14T21:44:11.269Z,13.17
2023-05-14T21:46:38.926Z,11.48
2023-05-14T21:49:06.523Z,12.23
2023-05-14T21:51:36.043Z,14.10
2023-05-14T21:54:03.546Z,10.77
2023-05-14T21:56:31.067Z,13.17
2023-05-14T21:58:58.843Z,10.73
2023-05-14T22:01:26.679Z,11.25
2023-05-14T22:03:57.859Z,11.25
2023-05-14T22:06:25.866Z,10.88
2023-05-14T22:08:54.794Z,10.40
2023-05-14T22:11:23.493Z,10.88
2023-05-14T22:13:51.553Z,12.13
2023-05-14T22:16:19.178Z,9.52
2023-05-14T22:18:47.131Z,14.32
2023-05-14T22:21:14.826Z,11.77
2023-05-14T22:23:42.392Z,10.38
2023-05-14T22:26:11.281Z,9.98
2023-05-14T22:28:42.876Z,9.65
2023-05-14T22:31:10.800Z,10.30
2023-05-14T22:33:38.332Z,14.20
2023-05-14T22:36:07.041Z,12.15
2023-05-14T22:38:34.689Z,13.05
2023-05-14T22:41:02.409Z,14.50
2023-05-14T22:43:31.449Z,15.70
2023-05-14T22:45:59.028Z,13.73
2023-05-14T22:48:26.612Z,14.38
2023-05-14T22:50:54.383Z,12.20
2023-05-14T22:53:21.994Z,12.77
2023-05-14T22:55:49.790Z,14.50
2023-05-14T22:58:17.406Z,13.53
2023-05-14T23:00:46.865Z,13.40
2023-05-14T23:03:14.411Z,12.48
2023-05-14T23:05:42.143Z,18.70
2023-05-14T23:08:09.722Z,13.60
2023-05-14T23:10:37.362Z,11.67
2023-05-14T23:13:05.084Z,13.38
2023-05-14T23:15:32.612Z,13.02
2023-05-14T23:18:01.749Z,13.90
2023-05-14T23:20:29.455Z,11.70
2023-05-14T23:22:56.953Z,12.50
2023-05-14T23:25:24.645Z,14.10
2023-05-14T23:27:55.199Z,12.80
2023-05-14T23:30:22.702Z,13.05
2023-05-14T23:32:50.500Z,12.95
2023-05-14T23:35:19.481Z,14.00
2023-05-14T23:37:49.606Z,16.30
2023-05-14T23:40:17.321Z,13.38
2023-05-14T23:42:45.002Z,12.02
2023-05-14T23:45:12.989Z,14.32
2023-05-14T23:47:41.350Z,14.33
2023-05-14T23:50:09.118Z,11.15
2023-05-14T23:52:38.269Z,12.93
2023-05-14T23:55:06.471Z,10.57
2023-05-14T23:57:34.097Z,13.45
